createdAt,value
2022-08-04T00:01:08.790Z,60.25
2022-08-04T00:03:55.732Z,60.51
2022-08-04T00:06:32.932Z,60.99
2022-08-04T00:09:07.947Z,60.27
2022-08-04T00:11:35.079Z,60.14
2022-08-04T00:14:05.389Z,60.73
2022-08-04T00:16:41.089Z,61.39
2022-08-04T00:19:13.043Z,61.07
2022-08-04T00:21:46.746Z,61.29
2022-08-04T00:24:15.935Z,61.36
2022-08-04T00:26:43.526Z,61.29
2022-08-04T00:29:10.850Z,61.36
2022-08-04T00:31:56.342Z,61.66
2022-08-04T00:34:26.907Z,61.43
2022-08-04T00:36:55.371Z,62.73
2022-08-04T00:39:23.098Z,62.76
2022-08-04T00:42:08.220Z,62.67
2022-08-04T00:44:40.682Z,63.23
2022-08-04T00:47:40.607Z,63.36
2022-08-04T00:50:14.828Z,63.76
2022-08-04T00:52:47.204Z,63.43
2022-08-04T00:55:37.136Z,63.47
2022-08-04T00:58:16.503Z,63.60
2022-08-04T01:00:54.432Z,63.64
2022-08-04T01:03:34.124Z,63.68
2022-08-04T01:06:16.353Z,63.40
2022-08-04T01:08:54.603Z,64.14
2022-08-04T01:11:57.599Z,63.77
2022-08-04T01:14:42.572Z,63.92
2022-08-04T01:17:20.880Z,64.26
2022-08-04T01:20:08.758Z,64.22
2022-08-04T01:23:09.996Z,64.67
2022-08-04T01:26:02.303Z,64.88
2022-08-04T01:29:08.044Z,64.78
2022-08-04T01:31:41.295Z,64.59
2022-08-04T01:34:12.473Z,64.89
2022-08-04T01:36:49.953Z,64.58
2022-08-04T01:39:37.411Z,64.20
2022-08-04T01:42:04.703Z,64.08
2022-08-04T01:44:39.243Z,64.08
2022-08-04T01:47:07.778Z,64.29
2022-08-04T01:49:40.900Z,64.36
2022-08-04T01:52:09.170Z,64.70
2022-08-04T01:54:38.265Z,64.98
2022-08-04T01:57:37.695Z,65.13
2022-08-04T01:59:53.971Z,64.95
2022-08-04T02:02:24.975Z,65.37
2022-08-04T02:04:52.157Z,65.59
2022-08-04T02:07:46.789Z,66.14
2022-08-04T02:10:53.880Z,66.56
2022-08-04T02:13:31.273Z,66.93
2022-08-04T02:16:10.245Z,66.38
2022-08-04T02:19:07.080Z,66.59
2022-08-04T02:21:41.921Z,65.50
2022-08-04T02:24:16.006Z,65.70
2022-08-04T02:26:47.162Z,65.55
2022-08-04T02:29:18.166Z,65.69
2022-08-04T02:31:58.137Z,66.46
2022-08-04T02:34:47.715Z,66.76
2022-08-04T02:37:17.400Z,67.30
2022-08-04T02:39:48.577Z,66.71
2022-08-04T02:42:17.099Z,66.39
2022-08-04T02:44:49.347Z,67.19
2022-08-04T02:47:20.264Z,66.79
2022-08-04T02:49:50.647Z,66.08
2022-08-04T02:52:19.317Z,65.92
2022-08-04T02:54:49.200Z,65.71
2022-08-04T02:57:19.069Z,65.73
2022-08-04T03:00:14.163Z,65.70
2022-08-04T03:03:02.650Z,67.14
2022-08-04T03:06:06.371Z,67.33
2022-08-04T03:08:47.097Z,66.95
2022-08-04T03:11:40.245Z,67.23
2022-08-04T03:14:17.493Z,67.32
2022-08-04T03:17:22.024Z,67.56
2022-08-04T03:20:07.383Z,66.66
2022-08-04T03:23:13.500Z,67.30
2022-08-04T03:26:08.259Z,67.38
2022-08-04T03:28:53.406Z,67.62
2022-08-04T03:32:04.475Z,67.90
2022-08-04T03:35:01.926Z,68.15
2022-08-04T03:37:52.125Z,67.90
2022-08-04T03:40:55.858Z,68.02
2022-08-04T03:44:00.256Z,68.78
2022-08-04T03:46:45.643Z,67.68
2022-08-04T03:49:35.932Z,68.44
2022-08-04T03:52:52.296Z,67.80
2022-08-04T03:55:41.363Z,68.93
2022-08-04T03:58:52.783Z,69.08
2022-08-04T04:02:01.925Z,68.42
2022-08-04T04:04:59.500Z,67.71
2022-08-04T04:07:45.030Z,67.52
2022-08-04T04:10:38.571Z,68.02
2022-08-04T04:13:23.964Z,67.95
2022-08-04T04:16:05.722Z,67.92
2022-08-04T04:18:50.724Z,68.75
2022-08-04T04:21:45.236Z,68.80
2022-08-04T04:24:32.849Z,67.68
2022-08-04T04:27:14.274Z,67.89
2022-08-04T04:30:11.360Z,68.15
2022-08-04T04:32:53.448Z,67.69
2022-08-04T04:35:22.958Z,67.97
2022-08-04T04:38:13.995Z,67.67
2022-08-04T04:41:11.589Z,69.05
2022-08-04T04:44:07.307Z,68.21
2022-08-04T04:46:54.925Z,67.72
2022-08-04T04:49:48.627Z,68.90
2022-08-04T04:52:24.458Z,68.04
2022-08-04T04:55:14.629Z,68.26
2022-08-04T04:57:53.933Z,67.64
2022-08-04T05:00:25.084Z,67.81
2022-08-04T05:03:28.852Z,67.92
2022-08-04T05:06:07.299Z,67.90
2022-08-04T05:08:56.854Z,68.03
2022-08-04T05:11:48.019Z,68.85
2022-08-04T05:14:34.685Z,69.39
2022-08-04T05:17:22.273Z,70.37
2022-08-04T05:20:07.137Z,70.02
2022-08-04T05:22:54.072Z,70.12
2022-08-04T05:25:34.900Z,69.71
2022-08-04T05:28:15.345Z,69.60
2022-08-04T05:30:50.115Z,69.47
2022-08-04T05:33:29.240Z,69.39
2022-08-04T05:36:18.660Z,69.15
2022-08-04T05:38:51.563Z,69.32
2022-08-04T05:41:19.355Z,69.36
2022-08-04T05:43:46.959Z,69.15
2022-08-04T05:46:15.658Z,69.22
2022-08-04T05:48:44.052Z,69.35
2022-08-04T05:51:12.602Z,69.50
2022-08-04T05:53:43.092Z,69.56
2022-08-04T05:56:29.128Z,69.64
2022-08-04T05:58:59.175Z,69.46
2022-08-04T06:01:28.306Z,69.46
2022-08-04T06:03:57.321Z,69.38
2022-08-04T06:06:25.949Z,69.37
2022-08-04T06:08:55.557Z,69.28
2022-08-04T06:11:23.412Z,69.11
2022-08-04T06:13:54.461Z,68.87
2022-08-04T06:16:30.354Z,69.04
2022-08-04T06:20:02.665Z,68.46
2022-08-04T06:21:51.110Z,68.49
2022-08-04T06:24:22.158Z,68.25
2022-08-04T06:26:50.616Z,68.24
2022-08-04T06:29:34.586Z,68.24
2022-08-04T06:32:26.838Z,68.13
2022-08-04T06:34:54.234Z,68.18
2022-08-04T06:37:40.850Z,68.27
2022-08-04T06:40:30.439Z,68.20
2022-08-04T06:42:58.395Z,67.94
2022-08-04T06:45:25.600Z,68.01
2022-08-04T06:47:54.179Z,68.36
2022-08-04T06:51:30.845Z,68.41
2022-08-04T06:53:08.408Z,68.00
2022-08-04T06:55:35.426Z,67.88
2022-08-04T06:58:03.671Z,68.13
2022-08-04T07:00:32.118Z,67.81
2022-08-04T07:03:01.840Z,67.80
2022-08-04T07:05:28.998Z,67.14
2022-08-04T07:07:58.605Z,67.15
2022-08-04T07:10:28.090Z,66.84
2022-08-04T07:12:57.189Z,66.79
2022-08-04T07:15:25.984Z,66.78
2022-08-04T07:17:53.585Z,66.35
2022-08-04T07:20:33.898Z,66.53
2022-08-04T07:23:03.815Z,66.23
2022-08-04T07:26:00.210Z,66.08
2022-08-04T07:28:17.478Z,65.85
2022-08-04T07:30:45.220Z,66.34
2022-08-04T07:33:12.428Z,66.24
2022-08-04T07:36:04.426Z,66.14
2022-08-04T07:38:27.723Z,65.86
2022-08-04T07:40:55.712Z,65.74
2022-08-04T07:43:23.306Z,65.76
2022-08-04T07:45:50.070Z,65.34
2022-08-04T07:48:18.896Z,65.64
2022-08-04T07:50:46.979Z,65.21
2022-08-04T07:53:54.265Z,65.14
2022-08-04T07:56:02.856Z,64.94
2022-08-04T07:58:30.332Z,64.72
2022-08-04T08:00:58.313Z,64.38
2022-08-04T08:03:25.928Z,64.19
2022-08-04T08:06:17.308Z,64.48
2022-08-04T08:08:40.181Z,64.13
2022-08-04T08:11:11.497Z,63.96
2022-08-04T08:13:39.154Z,64.22
2022-08-04T08:16:06.114Z,64.41
2022-08-04T08:18:32.956Z,63.69
2022-08-04T08:21:00.477Z,63.76
2022-08-04T08:23:30.360Z,63.90
2022-08-04T08:25:59.100Z,63.45
2022-08-04T08:28:27.486Z,63.79
2022-08-04T08:30:54.538Z,63.19
2022-08-04T08:33:26.453Z,63.35
2022-08-04T08:36:07.945Z,62.82
2022-08-04T08:38:46.924Z,62.79
2022-08-04T08:41:40.357Z,62.48
2022-08-04T08:44:29.737Z,62.54
2022-08-04T08:47:19.388Z,62.71
2022-08-04T08:50:00.604Z,62.49
2022-08-04T08:53:00.909Z,62.73
2022-08-04T08:55:44.453Z,62.56
2022-08-04T08:58:22.618Z,62.27
2022-08-04T09:01:26.129Z,61.74
2022-08-04T09:04:46.874Z,61.39
2022-08-04T09:07:41.296Z,61.21
2022-08-04T09:10:39.126Z,60.97
2022-08-04T09:13:27.855Z,60.71
2022-08-04T09:16:20.097Z,59.71
2022-08-04T09:19:08.448Z,58.60
2022-08-04T09:21:59.057Z,59.52
2022-08-04T09:24:36.744Z,59.25
2022-08-04T09:27:31.177Z,58.50
2022-08-04T09:30:03.702Z,58.20
2022-08-04T09:32:39.309Z,56.92
2022-08-04T09:35:19.637Z,56.04
2022-08-04T09:38:24.092Z,56.41
2022-08-04T09:41:33.908Z,55.53
2022-08-04T09:44:49.310Z,54.65
2022-08-04T09:47:06.742Z,55.52
2022-08-04T09:49:39.304Z,54.88
2022-08-04T09:52:27.970Z,54.75
2022-08-04T09:55:06.423Z,54.67
2022-08-04T09:57:47.732Z,53.92
2022-08-04T10:00:18.478Z,54.44
2022-08-04T10:02:53.765Z,54.42
2022-08-04T10:05:25.967Z,53.57
2022-08-04T10:08:17.291Z,54.20
2022-08-04T10:11:15.547Z,53.33
2022-08-04T10:13:55.442Z,53.82
2022-08-04T10:16:30.918Z,53.20
2022-08-04T10:19:08.542Z,53.72
2022-08-04T10:22:28.820Z,53.51
2022-08-04T10:26:03.566Z,53.57
2022-08-04T10:28:06.563Z,53.82
2022-08-04T10:30:37.214Z,53.05
2022-08-04T10:33:25.544Z,53.21
2022-08-04T10:36:00.291Z,53.68
2022-08-04T10:38:54.485Z,53.08
2022-08-04T10:41:30.156Z,53.22
2022-08-04T10:44:04.275Z,53.38
2022-08-04T10:46:37.414Z,53.58
2022-08-04T10:49:10.093Z,53.75
2022-08-04T10:51:58.029Z,52.95
2022-08-04T10:54:36.837Z,53.02
2022-08-04T10:57:16.523Z,53.38
2022-08-04T11:00:03.339Z,53.05
2022-08-04T11:02:40.247Z,53.58
2022-08-04T11:05:43.698Z,53.53
2022-08-04T11:08:21.843Z,53.73
2022-08-04T11:10:57.691Z,53.50
2022-08-04T11:13:30.727Z,53.98
2022-08-04T11:16:02.790Z,54.34
2022-08-04T11:18:47.869Z,54.77
2022-08-04T11:21:25.494Z,55.20
2022-08-04T11:24:02.783Z,55.18
2022-08-04T11:26:44.239Z,55.07
2022-08-04T11:29:32.780Z,54.42
2022-08-04T11:32:02.907Z,54.23
2022-08-04T11:34:31.253Z,53.67
2022-08-04T11:37:17.741Z,53.50
2022-08-04T11:39:53.805Z,53.23
2022-08-04T11:42:37.795Z,53.40
2022-08-04T11:45:07.140Z,53.14
2022-08-04T11:47:43.656Z,52.99
2022-08-04T11:50:20.346Z,52.83
2022-08-04T11:52:49.736Z,52.44
2022-08-04T11:55:21.403Z,51.99
2022-08-04T11:57:54.226Z,49.48
2022-08-04T12:00:22.458Z,51.48
2022-08-04T12:03:07.452Z,51.04
2022-08-04T12:06:00.583Z,50.61
2022-08-04T12:08:36.174Z,50.06
2022-08-04T12:11:21.889Z,50.57
2022-08-04T12:14:27.071Z,49.59
2022-08-04T12:17:03.696Z,49.43
2022-08-04T12:19:46.194Z,48.48
2022-08-04T12:22:26.394Z,48.38
2022-08-04T12:25:08.779Z,48.71
2022-08-04T12:27:41.935Z,48.96
2022-08-04T12:30:57.556Z,48.39
2022-08-04T12:33:06.584Z,47.83
2022-08-04T12:36:10.280Z,47.02
2022-08-04T12:38:33.632Z,47.25
2022-08-04T12:41:05.155Z,47.22
2022-08-04T12:43:39.845Z,47.06
2022-08-04T12:46:10.256Z,47.02
2022-08-04T12:48:39.941Z,46.59
2022-08-04T12:52:06.687Z,46.79
2022-08-04T12:53:59.044Z,46.11
2022-08-04T12:56:29.313Z,46.21
2022-08-04T12:59:04.295Z,46.13
2022-08-04T13:02:06.644Z,45.31
2022-08-04T13:04:29.007Z,45.12
2022-08-04T13:07:07.791Z,45.38
2022-08-04T13:09:35.594Z,45.60
2022-08-04T13:12:11.554Z,45.23
2022-08-04T13:14:44.564Z,45.04
2022-08-04T13:17:13.148Z,44.99
2022-08-04T13:19:45.651Z,45.25
2022-08-04T13:22:16.449Z,44.97
2022-08-04T13:25:18.430Z,44.88
2022-08-04T13:27:42.998Z,45.31
2022-08-04T13:30:12.073Z,45.77
2022-08-04T13:32:55.666Z,45.36
2022-08-04T13:35:55.733Z,45.75
2022-08-04T13:38:27.029Z,44.88
2022-08-04T13:40:58.744Z,45.04
2022-08-04T13:43:48.511Z,45.27
2022-08-04T13:46:28.013Z,44.87
2022-08-04T13:49:28.416Z,44.42
2022-08-04T13:51:58.469Z,44.41
2022-08-04T13:54:53.554Z,43.77
2022-08-04T13:57:30.214Z,44.19
2022-08-04T14:00:01.578Z,43.82
2022-08-04T14:02:52.819Z,42.85
2022-08-04T14:05:27.980Z,43.46
2022-08-04T14:08:06.284Z,43.36
2022-08-04T14:10:34.472Z,43.26
2022-08-04T14:13:04.511Z,43.78
2022-08-04T14:16:02.341Z,43.92
2022-08-04T14:18:23.584Z,42.67
2022-08-04T14:21:03.189Z,43.41
2022-08-04T14:23:46.984Z,43.03
2022-08-04T14:26:18.697Z,43.11
2022-08-04T14:29:26.480Z,43.15
2022-08-04T14:31:32.743Z,42.93
2022-08-04T14:34:04.401Z,43.50
2022-08-04T14:37:16.598Z,43.35
2022-08-04T14:39:42.492Z,42.56
2022-08-04T14:42:54.596Z,43.15
2022-08-04T14:45:54.590Z,42.16
2022-08-04T14:48:22.450Z,42.89
2022-08-04T14:50:50.761Z,42.60
2022-08-04T14:53:20.309Z,42.03
2022-08-04T14:55:52.332Z,42.19
2022-08-04T14:58:36.459Z,42.19
2022-08-04T15:01:10.536Z,41.95
2022-08-04T15:03:50.361Z,42.16
2022-08-04T15:06:26.752Z,41.48
2022-08-04T15:08:56.979Z,41.88
2022-08-04T15:11:24.659Z,42.23
2022-08-04T15:13:52.933Z,41.77
2022-08-04T15:16:23.731Z,41.65
2022-08-04T15:18:51.229Z,41.59
2022-08-04T15:21:22.476Z,42.27
2022-08-04T15:23:50.388Z,42.36
2022-08-04T15:26:23.129Z,41.82
2022-08-04T15:28:55.673Z,41.75
2022-08-04T15:32:04.419Z,41.90
2022-08-04T15:34:14.934Z,41.63
2022-08-04T15:36:56.189Z,41.79
2022-08-04T15:39:45.707Z,42.05
2022-08-04T15:42:32.985Z,42.42
2022-08-04T15:45:20.443Z,41.90
2022-08-04T15:48:05.754Z,42.02
2022-08-04T15:50:32.907Z,42.55
2022-08-04T15:53:12.769Z,42.26
2022-08-04T15:55:43.144Z,42.11
2022-08-04T15:58:13.087Z,42.16
2022-08-04T16:00:50.759Z,42.31
2022-08-04T16:03:58.918Z,41.92
2022-08-04T16:06:29.453Z,41.70
2022-08-04T16:09:04.002Z,41.98
2022-08-04T16:11:32.847Z,42.02
2022-08-04T16:13:59.852Z,41.90
2022-08-04T16:16:37.089Z,42.07
2022-08-04T16:19:06.051Z,41.98
2022-08-04T16:21:56.438Z,42.46
2022-08-04T16:24:37.696Z,42.75
2022-08-04T16:27:10.064Z,42.53
2022-08-04T16:29:41.806Z,42.85
2022-08-04T16:32:13.898Z,43.07
2022-08-04T16:35:03.558Z,42.88
2022-08-04T16:37:38.737Z,43.37
2022-08-04T16:40:39.335Z,43.32
2022-08-04T16:43:13.112Z,43.30
2022-08-04T16:45:44.635Z,43.60
2022-08-04T16:48:12.099Z,43.46
2022-08-04T16:50:49.588Z,43.54
2022-08-04T16:53:58.006Z,43.79
2022-08-04T16:56:06.874Z,43.80
2022-08-04T16:58:36.747Z,44.07
2022-08-04T17:01:21.801Z,44.12
2022-08-04T17:04:05.241Z,44.56
2022-08-04T17:06:35.393Z,44.52
2022-08-04T17:09:09.525Z,44.55
2022-08-04T17:11:36.228Z,44.36
2022-08-04T17:14:05.921Z,44.53
2022-08-04T17:16:35.364Z,44.37
2022-08-04T17:19:02.476Z,44.28
2022-08-04T17:21:33.166Z,44.46
2022-08-04T17:24:14.583Z,44.75
2022-08-04T17:26:45.363Z,44.52
2022-08-04T17:29:20.060Z,44.62
2022-08-04T17:31:48.034Z,44.77
2022-08-04T17:34:19.468Z,44.94
2022-08-04T17:36:47.886Z,44.80
2022-08-04T17:39:21.454Z,44.69
2022-08-04T17:41:49.014Z,44.99
2022-08-04T17:44:16.044Z,44.86
2022-08-04T17:46:45.609Z,44.94
2022-08-04T17:49:17.946Z,45.41
2022-08-04T17:52:04.807Z,45.32
2022-08-04T17:54:37.321Z,45.49
2022-08-04T17:57:21.057Z,45.69
2022-08-04T17:59:59.966Z,45.73
2022-08-04T18:02:33.282Z,45.76
2022-08-04T18:05:06.024Z,45.99
2022-08-04T18:08:38.624Z,45.96
2022-08-04T18:10:51.996Z,46.23
2022-08-04T18:13:27.503Z,46.53
2022-08-04T18:16:02.449Z,46.58
2022-08-04T18:19:08.789Z,46.44
2022-08-04T18:21:46.881Z,46.42
2022-08-04T18:24:34.511Z,46.72
2022-08-04T18:27:06.277Z,46.78
2022-08-04T18:29:34.389Z,47.27
2022-08-04T18:32:06.699Z,47.36
2022-08-04T18:34:40.954Z,47.36
2022-08-04T18:38:22.808Z,47.39
2022-08-04T18:40:27.889Z,47.72
2022-08-04T18:43:00.123Z,48.28
2022-08-04T18:45:33.879Z,47.40
2022-08-04T18:48:04.352Z,47.74
2022-08-04T18:51:09.584Z,47.84
2022-08-04T18:53:35.744Z,48.02
2022-08-04T18:56:03.465Z,48.22
2022-08-04T18:58:30.948Z,49.06
2022-08-04T19:01:03.239Z,49.10
2022-08-04T19:03:41.477Z,49.02
2022-08-04T19:06:11.582Z,49.53
2022-08-04T19:08:42.445Z,50.04
2022-08-04T19:11:28.737Z,49.49
2022-08-04T19:13:58.629Z,49.76
2022-08-04T19:16:27.463Z,50.21
2022-08-04T19:22:00.033Z,50.67
2022-08-04T19:24:34.410Z,50.41
2022-08-04T19:27:06.900Z,51.14
2022-08-04T19:29:38.118Z,50.98
2022-08-04T19:32:13.800Z,51.44
2022-08-04T19:34:42.741Z,51.71
2022-08-04T19:37:20.324Z,52.15
2022-08-04T19:40:00.950Z,52.31
2022-08-04T19:42:27.949Z,52.12
2022-08-04T19:44:54.603Z,52.29
2022-08-04T19:48:17.144Z,52.72
2022-08-04T19:50:10.822Z,52.70
2022-08-04T19:52:38.187Z,54.13
2022-08-04T19:55:10.408Z,53.92
2022-08-04T19:57:45.980Z,55.04
2022-08-04T20:00:14.287Z,54.70
2022-08-04T20:02:42.363Z,55.37
2022-08-04T20:05:09.489Z,54.89
2022-08-04T20:07:36.392Z,55.45
2022-08-04T20:10:05.491Z,55.09
2022-08-04T20:12:32.427Z,55.47
2022-08-04T20:14:59.542Z,55.89
2022-08-04T20:18:07.749Z,56.20
2022-08-04T20:20:14.901Z,56.98
2022-08-04T20:22:52.770Z,57.15
2022-08-04T20:25:36.520Z,57.65
2022-08-04T20:28:04.978Z,57.93
2022-08-04T20:30:33.250Z,58.33
2022-08-04T20:33:01.634Z,58.68
2022-08-04T20:36:00.731Z,60.82
2022-08-04T20:38:33.329Z,60.75
2022-08-04T20:41:01.357Z,61.10
2022-08-04T20:43:31.253Z,61.68
2022-08-04T20:48:44.776Z,63.33
2022-08-04T20:51:17.828Z,63.12
2022-08-04T20:53:53.037Z,63.40
2022-08-04T20:56:30.610Z,63.67
2022-08-04T20:58:59.693Z,64.33
2022-08-04T21:01:29.540Z,63.45
2022-08-04T21:04:32.182Z,63.34
2022-08-04T21:07:00.172Z,64.20
2022-08-04T21:09:37.979Z,64.25
2022-08-04T21:12:10.493Z,63.66
2022-08-04T21:14:37.141Z,64.01
2022-08-04T21:17:07.080Z,64.21
2022-08-04T21:19:36.632Z,64.15
2022-08-04T21:22:06.825Z,65.23
2022-08-04T21:24:37.001Z,65.14
2022-08-04T21:27:06.231Z,64.65
2022-08-04T21:29:37.526Z,64.87
2022-08-04T21:32:07.502Z,64.85
2022-08-04T21:34:37.851Z,65.75
2022-08-04T21:37:07.080Z,65.53
2022-08-04T21:39:50.366Z,65.18
2022-08-04T21:42:28.137Z,65.44
2022-08-04T21:45:09.821Z,65.31
2022-08-04T21:47:46.375Z,65.33
2022-08-04T21:50:19.568Z,64.79
2022-08-04T21:52:46.943Z,64.57
2022-08-04T21:55:13.504Z,65.58
2022-08-04T21:57:42.677Z,65.54
2022-08-04T22:00:10.979Z,65.73
2022-08-04T22:02:46.807Z,65.73
2022-08-04T22:05:20.379Z,65.83
2022-08-04T22:07:50.669Z,65.75
2022-08-04T22:10:32.227Z,65.90
2022-08-04T22:12:59.183Z,65.56
2022-08-04T22:16:05.072Z,65.51
2022-08-04T22:18:12.724Z,65.76
2022-08-04T22:20:39.447Z,65.55
2022-08-04T22:23:16.572Z,66.29
2022-08-04T22:25:55.661Z,66.72
2022-08-04T22:28:28.358Z,66.04
2022-08-04T22:30:55.957Z,66.17
2022-08-04T22:33:22.973Z,66.41
2022-08-04T22:35:50.079Z,65.87
2022-08-04T22:38:32.752Z,65.85
2022-08-04T22:41:10.632Z,66.04
2022-08-04T22:43:37.795Z,65.96
2022-08-04T22:46:07.710Z,65.95
2022-08-04T22:48:39.087Z,66.25
2022-08-04T22:51:10.109Z,66.12
2022-08-04T22:53:39.891Z,66.75
2022-08-04T22:56:09.295Z,66.35
2022-08-04T22:58:40.897Z,66.77
2022-08-04T23:01:15.249Z,66.93
2022-08-04T23:03:55.321Z,66.77
2022-08-04T23:06:25.656Z,66.29
2022-08-04T23:08:55.316Z,66.54
2022-08-04T23:11:22.072Z,66.26
2022-08-04T23:13:51.049Z,66.64
2022-08-04T23:16:19.105Z,66.17
2022-08-04T23:18:48.943Z,65.95
2022-08-04T23:21:16.275Z,65.36
2022-08-04T23:23:45.430Z,65.46
2022-08-04T23:26:22.411Z,66.17
2022-08-04T23:28:55.546Z,66.63
2022-08-04T23:31:22.212Z,66.69
2022-08-04T23:33:49.280Z,66.55
2022-08-04T23:36:26.386Z,66.38
2022-08-04T23:39:04.006Z,66.54
2022-08-04T23:41:53.479Z,66.50
2022-08-04T23:44:24.739Z,66.56
2022-08-04T23:47:00.899Z,66.29
2022-08-04T23:49:44.094Z,66.24
2022-08-04T23:52:15.975Z,66.03
2022-08-04T23:54:54.028Z,65.59
2022-08-04T23:57:21.977Z,65.70
2022-08-04T23:59:54.414Z,65.77
